createdAt,value
2023-02-26T00:02:32.346Z,76.50
2023-02-26T00:05:35.341Z,76.70
2023-02-26T00:08:38.267Z,76.40
2023-02-26T00:11:41.577Z,76.10
2023-02-26T00:14:45.163Z,76.20
2023-02-26T00:17:59.733Z,76.20
2023-02-26T00:21:03.171Z,76.00
2023-02-26T00:24:06.766Z,76.10
2023-02-26T00:27:12.221Z,76.00
2023-02-26T00:30:15.809Z,75.80
2023-02-26T00:33:20.837Z,75.70
2023-02-26T00:36:26.284Z,75.70
2023-02-26T00:39:42.286Z,75.50
2023-02-26T00:42:45.777Z,75.30
2023-02-26T00:45:57.708Z,75.40
2023-02-26T00:49:10.073Z,75.30
2023-02-26T00:52:16.302Z,75.00
2023-02-26T00:55:20.402Z,75.00
2023-02-26T00:58:23.781Z,75.10
2023-02-26T01:01:27.169Z,75.10
2023-02-26T01:04:32.170Z,75.00
2023-02-26T01:07:42.861Z,74.60
2023-02-26T01:10:46.838Z,74.60
2023-02-26T01:13:53.261Z,74.50
2023-02-26T01:17:02.364Z,74.50
2023-02-26T01:20:15.771Z,74.60
2023-02-26T01:23:24.012Z,74.30
2023-02-26T01:26:31.124Z,74.00
2023-02-26T01:29:34.861Z,74.00
2023-02-26T01:32:45.340Z,73.80
2023-02-26T01:35:53.920Z,73.80
2023-02-26T01:39:05.183Z,73.60
2023-02-26T01:42:14.796Z,73.50
2023-02-26T01:45:22.915Z,73.80
2023-02-26T01:48:37.681Z,73.70
2023-02-26T01:51:49.892Z,73.60
2023-02-26T01:54:53.398Z,73.60
2023-02-26T01:57:59.990Z,73.50
2023-02-26T02:01:04.022Z,72.90
2023-02-26T02:04:11.427Z,72.50
2023-02-26T02:07:16.119Z,72.60
2023-02-26T02:10:19.682Z,73.00
2023-02-26T02:13:36.396Z,72.80
2023-02-26T02:16:47.783Z,72.80
2023-02-26T02:20:12.285Z,72.40
2023-02-26T02:23:21.346Z,72.50
2023-02-26T02:26:49.670Z,72.50
2023-02-26T02:30:18.283Z,72.40
2023-02-26T02:33:27.920Z,72.30
2023-02-26T02:36:37.600Z,72.10
2023-02-26T02:39:44.506Z,72.40
2023-02-26T02:42:53.330Z,71.90
2023-02-26T02:46:00.675Z,71.70
2023-02-26T02:49:09.369Z,71.70
2023-02-26T02:52:22.217Z,71.90
2023-02-26T02:55:28.746Z,71.90
2023-02-26T02:58:37.618Z,71.90
2023-02-26T03:01:43.200Z,72.00
2023-02-26T03:04:48.307Z,71.90
2023-02-26T03:07:55.175Z,72.10
2023-02-26T03:10:58.722Z,72.10
2023-02-26T03:14:01.935Z,72.20
2023-02-26T03:17:19.481Z,72.10
2023-02-26T03:20:28.539Z,72.10
2023-02-26T03:23:36.616Z,71.80
2023-02-26T03:26:44.870Z,71.80
2023-02-26T03:29:53.372Z,71.80
2023-02-26T03:33:03.712Z,71.90
2023-02-26T03:36:14.545Z,72.00
2023-02-26T03:39:23.584Z,71.90
2023-02-26T03:42:30.959Z,72.00
2023-02-26T03:45:38.461Z,72.20
2023-02-26T03:48:41.519Z,72.10
2023-02-26T03:51:47.622Z,72.20
2023-02-26T03:54:57.600Z,72.30
2023-02-26T03:58:00.826Z,72.40
2023-02-26T04:01:07.495Z,72.60
2023-02-26T04:04:14.177Z,72.50
2023-02-26T04:07:20.259Z,72.50
2023-02-26T04:10:30.816Z,72.60
2023-02-26T04:13:34.056Z,72.30
2023-02-26T04:16:37.050Z,72.50
2023-02-26T04:19:39.966Z,72.40
2023-02-26T04:22:44.330Z,72.40
2023-02-26T04:25:47.457Z,72.20
2023-02-26T04:28:50.715Z,71.90
2023-02-26T04:31:53.885Z,72.30
2023-02-26T04:34:56.952Z,72.20
2023-02-26T04:38:01.313Z,72.10
2023-02-26T04:41:04.300Z,72.20
2023-02-26T04:44:07.806Z,71.90
2023-02-26T04:47:11.071Z,71.80
2023-02-26T04:50:14.228Z,71.80
2023-02-26T04:53:19.022Z,71.50
2023-02-26T04:56:22.186Z,71.60
2023-02-26T04:59:25.356Z,71.20
2023-02-26T05:02:28.604Z,71.20
2023-02-26T05:05:31.593Z,71.10
2023-02-26T05:08:36.045Z,71.30
2023-02-26T05:11:38.949Z,71.20
2023-02-26T05:14:41.967Z,71.00
2023-02-26T05:17:46.205Z,70.80
2023-02-26T05:20:53.749Z,70.70
2023-02-26T05:23:58.128Z,70.90
2023-02-26T05:27:01.115Z,70.60
2023-02-26T05:30:06.571Z,70.40
2023-02-26T05:33:09.944Z,70.30
2023-02-26T05:36:13.720Z,70.50
2023-02-26T05:39:18.091Z,70.40
2023-02-26T05:42:21.137Z,70.20
2023-02-26T05:45:25.441Z,70.40
2023-02-26T05:48:28.503Z,69.90
2023-02-26T05:51:32.414Z,69.80
2023-02-26T05:54:36.976Z,69.00
2023-02-26T05:57:40.136Z,69.00
2023-02-26T06:00:43.547Z,69.40
2023-02-26T06:03:46.562Z,69.40
2023-02-26T06:06:49.516Z,69.30
2023-02-26T06:09:53.914Z,69.40
2023-02-26T06:12:56.883Z,69.20
2023-02-26T06:15:59.849Z,68.80
2023-02-26T06:19:03.030Z,68.90
2023-02-26T06:22:06.048Z,68.70
2023-02-26T06:25:11.012Z,68.50
2023-02-26T06:28:14.050Z,69.00
2023-02-26T06:31:17.067Z,68.90
2023-02-26T06:34:20.430Z,68.40
2023-02-26T06:37:23.529Z,68.40
2023-02-26T06:40:28.884Z,68.40
2023-02-26T06:43:31.877Z,68.50
2023-02-26T06:46:35.304Z,68.20
2023-02-26T06:49:38.286Z,67.80
2023-02-26T06:52:41.278Z,68.00
2023-02-26T06:55:47.635Z,67.50
2023-02-26T06:58:50.685Z,67.10
2023-02-26T07:01:53.670Z,67.00
2023-02-26T07:04:56.583Z,67.10
2023-02-26T07:07:59.607Z,66.50
2023-02-26T07:11:04.279Z,66.60
2023-02-26T07:14:07.311Z,66.50
2023-02-26T07:17:19.581Z,65.30
2023-02-26T07:20:23.168Z,65.30
2023-02-26T07:23:26.194Z,65.70
2023-02-26T07:26:30.645Z,65.90
2023-02-26T07:29:33.766Z,65.80
2023-02-26T07:32:37.123Z,66.20
2023-02-26T07:35:40.452Z,66.20
2023-02-26T07:38:43.435Z,66.50
2023-02-26T07:41:47.840Z,66.50
2023-02-26T07:44:51.274Z,66.30
2023-02-26T07:47:54.668Z,66.20
2023-02-26T07:50:57.770Z,66.10
2023-02-26T07:54:00.901Z,66.40
2023-02-26T07:57:06.015Z,66.10
2023-02-26T08:00:10.941Z,66.20
2023-02-26T08:03:15.362Z,65.80
2023-02-26T08:06:18.389Z,65.80
2023-02-26T08:09:21.519Z,65.30
2023-02-26T08:12:26.527Z,65.60
2023-02-26T08:15:29.601Z,65.90
2023-02-26T08:18:32.644Z,65.00
2023-02-26T08:21:35.735Z,64.50
2023-02-26T08:24:39.303Z,64.30
2023-02-26T08:27:43.676Z,64.30
2023-02-26T08:30:46.800Z,64.30
2023-02-26T08:33:50.177Z,64.40
2023-02-26T08:36:53.262Z,64.40
2023-02-26T08:39:56.550Z,63.80
2023-02-26T08:43:00.891Z,63.70
2023-02-26T08:46:03.941Z,64.10
2023-02-26T08:49:07.415Z,64.00
2023-02-26T08:52:10.408Z,63.20
2023-02-26T08:55:13.448Z,63.60
2023-02-26T08:58:18.076Z,63.40
2023-02-26T09:01:21.160Z,62.90
2023-02-26T09:04:24.156Z,63.20
2023-02-26T09:07:27.167Z,63.30
2023-02-26T09:10:30.360Z,62.80
2023-02-26T09:13:34.853Z,62.70
2023-02-26T09:16:38.799Z,61.70
2023-02-26T09:19:41.967Z,61.90
2023-02-26T09:22:44.896Z,60.70
2023-02-26T09:25:47.911Z,60.80
2023-02-26T09:28:52.418Z,60.70
2023-02-26T09:31:55.595Z,61.30
2023-02-26T09:34:59.721Z,61.20
2023-02-26T09:38:03.892Z,60.80
2023-02-26T09:41:10.066Z,60.70
2023-02-26T09:44:22.747Z,60.40
2023-02-26T09:47:29.873Z,60.10
2023-02-26T09:50:40.866Z,60.20
2023-02-26T09:53:44.412Z,60.40
2023-02-26T09:56:49.151Z,60.40
2023-02-26T09:59:53.655Z,59.50
2023-02-26T10:03:05.886Z,59.20
2023-02-26T10:06:20.565Z,58.40
2023-02-26T10:09:37.924Z,57.70
2023-02-26T10:12:43.560Z,57.90
2023-02-26T10:15:50.064Z,57.80
2023-02-26T10:18:56.523Z,57.10
2023-02-26T10:22:06.001Z,57.00
2023-02-26T10:25:14.286Z,56.80
2023-02-26T10:28:34.703Z,56.30
2023-02-26T10:31:44.038Z,56.50
2023-02-26T10:34:53.063Z,56.10
2023-02-26T10:37:59.981Z,56.20
2023-02-26T10:41:11.476Z,54.30
2023-02-26T10:44:21.144Z,55.40
2023-02-26T10:47:38.015Z,54.70
2023-02-26T10:50:47.073Z,54.80
2023-02-26T10:53:54.740Z,54.90
2023-02-26T10:56:58.178Z,55.40
2023-02-26T11:00:01.567Z,54.20
2023-02-26T11:03:07.649Z,53.70
2023-02-26T11:06:15.098Z,53.30
2023-02-26T11:09:22.443Z,54.00
2023-02-26T11:12:27.864Z,52.30
2023-02-26T11:15:32.258Z,52.30
2023-02-26T11:18:41.580Z,52.00
2023-02-26T11:21:48.834Z,51.40
2023-02-26T11:24:53.250Z,51.60
2023-02-26T11:28:01.492Z,50.90
2023-02-26T11:31:08.725Z,51.30
2023-02-26T11:34:13.859Z,51.00
2023-02-26T11:37:21.980Z,51.20
2023-02-26T11:40:32.221Z,49.80
2023-02-26T11:43:40.316Z,50.30
2023-02-26T11:46:46.547Z,49.30
2023-02-26T11:49:54.494Z,49.80
2023-02-26T11:52:58.906Z,50.60
2023-02-26T11:56:03.842Z,51.50
2023-02-26T11:59:09.720Z,52.60
2023-02-26T12:02:14.668Z,52.10
2023-02-26T12:05:19.747Z,52.10
2023-02-26T12:08:26.693Z,52.30
2023-02-26T12:11:53.209Z,52.40
2023-02-26T12:15:11.190Z,52.20
2023-02-26T12:18:30.469Z,52.80
2023-02-26T12:21:52.365Z,53.60
2023-02-26T12:25:22.217Z,54.40
2023-02-26T12:28:44.539Z,53.00
2023-02-26T12:32:03.035Z,52.30
2023-02-26T12:35:32.289Z,51.50
2023-02-26T12:38:53.851Z,51.70
2023-02-26T12:42:09.131Z,50.50
2023-02-26T12:45:46.328Z,51.00
2023-02-26T12:49:23.310Z,50.30
2023-02-26T12:52:53.639Z,50.40
2023-02-26T12:56:25.944Z,50.00
2023-02-26T12:59:46.081Z,49.60
2023-02-26T13:03:27.606Z,49.70
2023-02-26T13:07:21.508Z,49.40
2023-02-26T13:10:30.746Z,50.10
2023-02-26T13:17:14.462Z,50.40
2023-02-26T13:20:20.787Z,50.50
2023-02-26T13:23:28.545Z,50.50
2023-02-26T13:26:32.951Z,50.20
2023-02-26T13:29:40.214Z,50.50
2023-02-26T13:32:46.744Z,50.40
2023-02-26T13:35:53.178Z,50.20
2023-02-26T13:39:12.102Z,50.90
2023-02-26T13:42:31.806Z,51.80
2023-02-26T13:45:50.581Z,51.50
2023-02-26T13:49:04.903Z,51.10
2023-02-26T13:52:25.920Z,49.10
2023-02-26T13:55:44.564Z,49.60
2023-02-26T13:58:52.836Z,50.00
2023-02-26T14:01:57.983Z,50.70
2023-02-26T14:05:02.618Z,50.70
2023-02-26T14:08:28.370Z,51.20
2023-02-26T14:11:43.706Z,51.70
2023-02-26T14:15:07.389Z,51.40
2023-02-26T14:22:23.503Z,49.70
2023-02-26T14:25:34.782Z,50.30
2023-02-26T14:28:48.236Z,50.30
2023-02-26T14:32:06.815Z,49.80
2023-02-26T14:35:14.219Z,49.90
2023-02-26T14:38:22.417Z,49.90
2023-02-26T14:41:30.684Z,49.80
2023-02-26T14:44:38.310Z,49.70
2023-02-26T14:47:41.908Z,50.50
2023-02-26T14:50:58.408Z,50.50
2023-02-26T14:54:15.603Z,50.50
2023-02-26T14:57:28.296Z,50.00
2023-02-26T15:00:41.461Z,48.80
2023-02-26T15:04:17.487Z,48.30
2023-02-26T15:07:40.326Z,48.10
2023-02-26T15:10:55.784Z,48.80
2023-02-26T15:14:13.359Z,48.60
2023-02-26T15:17:27.863Z,49.10
2023-02-26T15:20:38.977Z,49.60
2023-02-26T15:23:45.921Z,50.00
2023-02-26T15:26:53.728Z,50.10
2023-02-26T15:29:57.127Z,49.50
2023-02-26T15:33:01.929Z,50.00
2023-02-26T15:36:09.964Z,50.30
2023-02-26T15:39:17.396Z,50.10
2023-02-26T15:42:22.678Z,49.20
2023-02-26T15:45:29.858Z,49.10
2023-02-26T15:48:36.247Z,49.10
2023-02-26T15:51:39.600Z,49.50
2023-02-26T15:54:47.614Z,49.00
2023-02-26T15:57:52.284Z,49.50
2023-02-26T16:00:56.029Z,50.10
2023-02-26T16:04:02.340Z,50.10
2023-02-26T16:07:05.378Z,50.40
2023-02-26T16:10:28.523Z,50.50
2023-02-26T16:13:34.102Z,51.10
2023-02-26T16:16:42.857Z,51.40
2023-02-26T16:19:48.314Z,51.60
2023-02-26T16:22:56.611Z,51.90
2023-02-26T16:26:03.975Z,51.90
2023-02-26T16:29:14.431Z,52.50
2023-02-26T16:32:18.611Z,52.60
2023-02-26T16:35:24.343Z,52.90
2023-02-26T16:38:29.630Z,53.40
2023-02-26T16:41:36.661Z,53.70
2023-02-26T16:44:47.571Z,53.90
2023-02-26T16:47:54.317Z,54.20
2023-02-26T16:51:00.801Z,54.70
2023-02-26T16:54:08.550Z,55.00
2023-02-26T16:57:19.800Z,55.40
2023-02-26T17:00:31.213Z,55.50
2023-02-26T17:03:34.625Z,55.80
2023-02-26T17:06:41.978Z,56.00
2023-02-26T17:09:50.296Z,56.00
2023-02-26T17:13:02.609Z,56.20
2023-02-26T17:16:08.280Z,56.30
2023-02-26T17:19:11.842Z,56.50
2023-02-26T17:22:17.324Z,56.60
2023-02-26T17:25:21.840Z,56.90
2023-02-26T17:28:28.806Z,57.20
2023-02-26T17:31:31.975Z,57.10
2023-02-26T17:34:35.050Z,57.20
2023-02-26T17:37:39.590Z,57.30
2023-02-26T17:40:43.865Z,57.10
2023-02-26T17:43:48.492Z,57.20
2023-02-26T17:46:51.499Z,57.20
2023-02-26T17:49:54.955Z,57.30
2023-02-26T17:52:58.459Z,57.10
2023-02-26T17:56:01.437Z,57.10
2023-02-26T17:59:07.060Z,57.30
2023-02-26T18:02:17.675Z,57.40
2023-02-26T18:05:21.155Z,57.60
2023-02-26T18:08:26.558Z,57.80
2023-02-26T18:11:30.788Z,58.00
2023-02-26T18:14:35.443Z,58.20
2023-02-26T18:17:39.605Z,58.20
2023-02-26T18:20:44.085Z,58.50
2023-02-26T18:23:47.273Z,58.70
2023-02-26T18:26:51.407Z,58.80
2023-02-26T18:29:55.830Z,58.70
2023-02-26T18:32:59.303Z,58.80
2023-02-26T18:36:02.485Z,59.30
2023-02-26T18:39:08.067Z,59.40
2023-02-26T18:42:19.743Z,59.20
2023-02-26T18:45:24.156Z,59.10
2023-02-26T18:48:27.307Z,59.00
2023-02-26T18:51:30.630Z,59.20
2023-02-26T18:54:33.742Z,59.60
2023-02-26T18:57:36.864Z,59.70
2023-02-26T19:00:41.805Z,59.50
2023-02-26T19:03:47.577Z,59.40
2023-02-26T19:06:50.712Z,59.60
2023-02-26T19:09:53.974Z,59.70
2023-02-26T19:12:57.118Z,59.70
2023-02-26T19:16:01.615Z,59.80
2023-02-26T19:19:06.578Z,60.00
2023-02-26T19:22:09.932Z,60.10
2023-02-26T19:25:13.713Z,60.20
2023-02-26T19:28:16.806Z,60.10
2023-02-26T19:31:21.493Z,60.30
2023-02-26T19:34:24.788Z,60.30
2023-02-26T19:37:28.219Z,60.60
2023-02-26T19:40:31.452Z,60.50
2023-02-26T19:43:38.095Z,60.70
2023-02-26T19:46:43.469Z,60.80
2023-02-26T19:49:46.587Z,60.90
2023-02-26T19:52:50.012Z,60.80
2023-02-26T19:55:53.395Z,60.90
2023-02-26T19:58:56.614Z,61.00
2023-02-26T20:02:04.779Z,61.30
2023-02-26T20:05:11.602Z,61.30
2023-02-26T20:08:14.729Z,61.30
2023-02-26T20:11:17.916Z,61.30
2023-02-26T20:14:20.977Z,61.40
2023-02-26T20:17:25.337Z,61.50
2023-02-26T20:20:31.274Z,61.70
2023-02-26T20:23:37.090Z,61.60
2023-02-26T20:26:40.476Z,61.70
2023-02-26T20:29:43.542Z,61.60
2023-02-26T20:32:48.320Z,61.70
2023-02-26T20:35:51.934Z,61.70
2023-02-26T20:38:55.409Z,61.70
2023-02-26T20:42:00.930Z,61.60
2023-02-26T20:45:04.347Z,61.60
2023-02-26T20:48:09.975Z,61.70
2023-02-26T20:51:13.322Z,61.90
2023-02-26T20:54:17.825Z,62.10
2023-02-26T20:57:20.844Z,62.20
2023-02-26T21:00:24.544Z,62.20
2023-02-26T21:03:28.988Z,62.10
2023-02-26T21:06:33.202Z,62.20
2023-02-26T21:09:36.245Z,62.20
2023-02-26T21:12:39.595Z,62.40
2023-02-26T21:15:45.347Z,62.40
2023-02-26T21:18:49.877Z,62.50
2023-02-26T21:21:52.891Z,62.50
2023-02-26T21:24:55.893Z,62.60
2023-02-26T21:27:59.298Z,62.60
2023-02-26T21:31:02.522Z,62.60
2023-02-26T21:34:30.185Z,62.80
2023-02-26T21:37:32.158Z,62.70
2023-02-26T21:40:35.907Z,62.80
2023-02-26T21:43:39.235Z,62.80
2023-02-26T21:46:42.224Z,62.50
2023-02-26T21:49:46.774Z,62.30
2023-02-26T21:52:50.118Z,62.20
2023-02-26T21:55:53.257Z,62.30
2023-02-26T21:58:56.282Z,62.30
2023-02-26T22:01:59.643Z,62.40
2023-02-26T22:05:05.062Z,62.50
2023-02-26T22:08:08.178Z,62.50
2023-02-26T22:11:11.554Z,62.70
2023-02-26T22:14:15.553Z,62.70
2023-02-26T22:17:18.726Z,62.70
2023-02-26T22:20:23.316Z,62.90
2023-02-26T22:23:26.462Z,62.90
2023-02-26T22:26:30.195Z,63.00
2023-02-26T22:29:33.175Z,63.10
2023-02-26T22:32:36.379Z,63.20
2023-02-26T22:35:41.185Z,63.20
2023-02-26T22:38:44.227Z,63.40
2023-02-26T22:41:47.346Z,63.50
2023-02-26T22:44:50.625Z,63.60
2023-02-26T22:47:53.764Z,63.80
2023-02-26T22:50:58.436Z,64.00
2023-02-26T22:54:01.802Z,64.10
2023-02-26T22:57:04.964Z,64.30
2023-02-26T23:00:12.852Z,64.40
2023-02-26T23:03:15.941Z,64.50
2023-02-26T23:06:23.259Z,64.50
2023-02-26T23:09:26.342Z,64.60
2023-02-26T23:12:29.376Z,64.80
2023-02-26T23:15:32.559Z,64.80
2023-02-26T23:18:36.609Z,64.70
2023-02-26T23:21:41.677Z,64.70
2023-02-26T23:24:46.369Z,64.70
2023-02-26T23:27:49.507Z,64.50
2023-02-26T23:30:52.817Z,64.40
2023-02-26T23:33:56.415Z,64.10
2023-02-26T23:37:02.845Z,64.20
2023-02-26T23:40:07.638Z,64.50
2023-02-26T23:43:10.885Z,64.50
2023-02-26T23:46:14.207Z,64.40
2023-02-26T23:49:17.340Z,64.60
2023-02-26T23:52:21.868Z,64.70
2023-02-26T23:55:25.039Z,64.70
2023-02-26T23:58:29.623Z,65.00
